Time;durP1;ratioP1;P1;durP2;ratioP2;P2;SDS_P1;SDS_P2;PMS_P1;PMS_P2;Temp;Humidity;BMP_temperature;BMP_pressure;BME280_temperature;BME280_humidity;BME280_pressure;Samples;Min_cycle;Max_cycle;Signal;HPM_P1;HPM_P2
2022/07/17 00:02:01;;;;;;;5.32;1.02;;;;;;;;;;5071323;28;20027;-64
2022/07/17 00:04:27;;;;;;;3.35;1.25;;;;;;;;;;5071760;28;20078;-64
2022/07/17 00:06:52;;;;;;;6.95;1.42;;;;;;;;;;5071461;28;20032;-64
2022/07/17 00:09:18;;;;;;;4.07;1.25;;;;;;;;;;5071631;28;20025;-64
2022/07/17 00:11:43;;;;;;;6.80;1.58;;;;;;;;;;5071538;28;20481;-64
2022/07/17 00:14:09;;;;;;;5.57;1.13;;;;;;;;;;5071455;28;20038;-64
2022/07/17 00:16:34;;;;;;;7.97;2.25;;;;;;;;;;5071538;28;20120;-64
2022/07/17 00:19:00;;;;;;;8.05;1.50;;;;;;;;;;5071371;28;20062;-65
2022/07/17 00:21:26;;;;;;;4.95;1.10;;;;;;;;;;5071268;28;20078;-64
2022/07/17 00:23:51;;;;;;;4.20;1.20;;;;;;;;;;5071480;28;20025;-64
2022/07/17 00:26:17;;;;;;;4.30;1.08;;;;;;;;;;5071241;28;20029;-64
2022/07/17 00:28:42;;;;;;;6.50;2.03;;;;;;;;;;5071226;28;20112;-64
2022/07/17 00:31:08;;;;;;;7.97;1.33;;;;;;;;;;5071408;28;20483;-64
2022/07/17 00:33:34;;;;;;;4.97;1.42;;;;;;;;;;5053251;28;20036;-64
2022/07/17 00:36:00;;;;;;;5.22;1.20;;;;;;;;;;5083373;28;20016;-64
2022/07/17 00:38:25;;;;;;;6.28;0.98;;;;;;;;;;5091399;28;20039;-64
2022/07/17 00:40:56;;;;;;;5.00;1.27;;;;;;;;;;5091334;28;20035;-64
2022/07/17 00:43:22;;;;;;;4.95;1.00;;;;;;;;;;5090964;28;20031;-64
2022/07/17 00:45:58;;;;;;;6.05;1.35;;;;;;;;;;5091108;28;20070;-64
2022/07/17 00:48:24;;;;;;;9.55;1.50;;;;;;;;;;5091467;28;20469;-64
2022/07/17 00:50:50;;;;;;;5.35;1.42;;;;;;;;;;5091072;28;20108;-64
2022/07/17 00:53:15;;;;;;;8.55;1.40;;;;;;;;;;5091147;28;20111;-64
2022/07/17 00:55:42;;;;;;;6.47;1.50;;;;;;;;;;5091237;28;20032;-64
2022/07/17 00:58:09;;;;;;;4.82;1.13;;;;;;;;;;5090975;28;20028;-64
2022/07/17 01:00:35;;;;;;;6.25;1.40;;;;;;;;;;5091273;28;20028;-64
2022/07/17 01:03:01;;;;;;;5.38;1.20;;;;;;;;;;5091133;28;20028;-64
2022/07/17 01:05:26;;;;;;;7.90;1.58;;;;;;;;;;5091249;28;20028;-65
2022/07/17 01:07:52;;;;;;;6.65;1.38;;;;;;;;;;5091160;28;20081;-64
2022/07/17 01:10:19;;;;;;;3.75;1.20;;;;;;;;;;5091258;28;20028;-64
2022/07/17 01:12:46;;;;;;;8.65;1.30;;;;;;;;;;5076044;28;20021;-64
2022/07/17 01:15:12;;;;;;;3.90;1.50;;;;;;;;;;5074898;28;20024;-64
2022/07/17 01:17:38;;;;;;;8.05;1.58;;;;;;;;;;5074743;28;20037;-64
2022/07/17 01:20:06;;;;;;;5.00;1.20;;;;;;;;;;5074583;28;20027;-64
2022/07/17 01:22:32;;;;;;;4.72;1.08;;;;;;;;;;5074671;28;20021;-63
2022/07/17 01:24:57;;;;;;;3.75;1.10;;;;;;;;;;5074324;28;20032;-64
2022/07/17 01:27:23;;;;;;;7.03;1.67;;;;;;;;;;5074298;28;20021;-64
2022/07/17 01:29:48;;;;;;;5.90;1.23;;;;;;;;;;5074505;28;20074;-63
2022/07/17 01:32:14;;;;;;;3.97;1.20;;;;;;;;;;5074352;28;20326;-64
2022/07/17 01:34:40;;;;;;;5.50;1.30;;;;;;;;;;5074434;28;20078;-63
2022/07/17 01:37:05;;;;;;;6.38;1.33;;;;;;;;;;5074138;28;20025;-63
2022/07/17 01:42:15;;;;;;;4.72;1.38;;;;;;;;;;5074134;28;20496;-64
2022/07/17 01:44:40;;;;;;;4.47;1.27;;;;;;;;;;5073834;28;20045;-64
2022/07/17 01:47:06;;;;;;;5.70;1.42;;;;;;;;;;5074010;28;20032;-64
2022/07/17 01:49:31;;;;;;;7.75;1.40;;;;;;;;;;5074052;28;20028;-63
2022/07/17 01:51:59;;;;;;;6.03;1.33;;;;;;;;;;5074082;28;20637;-64
2022/07/17 01:54:26;;;;;;;6.28;1.17;;;;;;;;;;5074001;28;20079;-64
2022/07/17 01:56:52;;;;;;;7.80;1.50;;;;;;;;;;5073726;28;20307;-63
2022/07/17 01:59:17;;;;;;;7.07;1.40;;;;;;;;;;5073964;28;20029;-64
2022/07/17 02:01:43;;;;;;;4.18;1.40;;;;;;;;;;5073955;28;20377;-64
2022/07/17 02:04:08;;;;;;;5.13;1.60;;;;;;;;;;5073791;28;20032;-63
2022/07/17 02:06:34;;;;;;;7.93;2.10;;;;;;;;;;5073698;28;20119;-64
2022/07/17 02:08:59;;;;;;;5.25;1.40;;;;;;;;;;5073880;28;20070;-64
2022/07/17 02:11:25;;;;;;;3.67;1.63;;;;;;;;;;5073583;28;20108;-64
2022/07/17 02:13:51;;;;;;;4.10;1.25;;;;;;;;;;5073746;28;20031;-63
2022/07/17 02:16:16;;;;;;;5.75;1.40;;;;;;;;;;5073618;28;20487;-64
2022/07/17 02:18:42;;;;;;;6.18;1.50;;;;;;;;;;5073677;28;20103;-64
2022/07/17 02:21:07;;;;;;;8.43;1.30;;;;;;;;;;5073552;28;20029;-64
2022/07/17 02:23:33;;;;;;;5.20;1.33;;;;;;;;;;5073127;28;20389;-64
2022/07/17 02:25:58;;;;;;;4.80;1.25;;;;;;;;;;5073375;28;20166;-64
2022/07/17 02:28:24;;;;;;;4.07;1.50;;;;;;;;;;5073504;28;20114;-64
2022/07/17 02:30:49;;;;;;;4.30;1.30;;;;;;;;;;5073442;28;20071;-63
2022/07/17 02:33:15;;;;;;;4.85;1.23;;;;;;;;;;5073365;28;20143;-63
2022/07/17 02:35:40;;;;;;;3.47;1.17;;;;;;;;;;5073217;28;20039;-64
2022/07/17 02:38:06;;;;;;;5.50;1.40;;;;;;;;;;5073093;28;20047;-64
2022/07/17 02:40:32;;;;;;;4.80;1.40;;;;;;;;;;5072955;28;20493;-63
2022/07/17 02:42:57;;;;;;;4.75;1.40;;;;;;;;;;5073085;28;20024;-64
2022/07/17 02:45:26;;;;;;;5.72;1.83;;;;;;;;;;5072547;28;20040;-63
2022/07/17 02:47:54;;;;;;;5.45;1.50;;;;;;;;;;5072991;28;20055;-63
2022/07/17 02:50:19;;;;;;;2.80;1.10;;;;;;;;;;5072850;28;20021;-64
2022/07/17 02:52:45;;;;;;;2.72;1.25;;;;;;;;;;5072883;28;20078;-63
2022/07/17 02:55:11;;;;;;;6.50;1.52;;;;;;;;;;5072672;28;20070;-64
2022/07/17 02:57:38;;;;;;;6.18;1.35;;;;;;;;;;5072732;28;20111;-63
2022/07/17 03:00:06;;;;;;;5.88;1.58;;;;;;;;;;5072709;28;20040;-63
2022/07/17 03:02:31;;;;;;;6.57;1.40;;;;;;;;;;5072830;28;20108;-63
2022/07/17 03:04:57;;;;;;;8.45;1.55;;;;;;;;;;5072584;28;20115;-64
2022/07/17 03:07:22;;;;;;;3.58;1.50;;;;;;;;;;5072309;28;20036;-63
2022/07/17 03:09:48;;;;;;;4.47;1.38;;;;;;;;;;5072567;28;20020;-63
2022/07/17 03:12:13;;;;;;;5.75;1.25;;;;;;;;;;5072553;28;20029;-63
2022/07/17 03:14:39;;;;;;;5.47;1.40;;;;;;;;;;5072458;28;20031;-64
2022/07/17 03:17:04;;;;;;;4.22;1.45;;;;;;;;;;5072246;28;20028;-63
2022/07/17 03:19:30;;;;;;;6.72;1.35;;;;;;;;;;5072327;28;20074;-63
2022/07/17 03:21:56;;;;;;;6.18;1.50;;;;;;;;;;5054241;28;20035;-64
2022/07/17 03:24:21;;;;;;;7.97;1.60;;;;;;;;;;5072342;28;20024;-63
2022/07/17 03:26:47;;;;;;;3.10;1.17;;;;;;;;;;5072162;28;20511;-64
2022/07/17 03:29:12;;;;;;;4.47;1.73;;;;;;;;;;5072187;28;20440;-63
2022/07/17 03:31:38;;;;;;;6.13;1.60;;;;;;;;;;5072360;28;20025;-63
2022/07/17 03:34:03;;;;;;;3.40;1.42;;;;;;;;;;5072070;28;20028;-63
2022/07/17 03:36:29;;;;;;;7.70;1.65;;;;;;;;;;5071096;28;20552;-64
2022/07/17 03:38:55;;;;;;;3.33;1.35;;;;;;;;;;5071905;28;20056;-63
2022/07/17 03:41:20;;;;;;;6.85;1.73;;;;;;;;;;5071855;28;20089;-63
2022/07/17 03:43:46;;;;;;;7.78;1.58;;;;;;;;;;5071896;28;20039;-64
2022/07/17 03:46:11;;;;;;;7.75;1.60;;;;;;;;;;5071597;28;20068;-63
2022/07/17 03:48:37;;;;;;;6.72;1.40;;;;;;;;;;5071890;28;20033;-63
2022/07/17 03:51:02;;;;;;;7.22;1.58;;;;;;;;;;5071353;28;20032;-64
2022/07/17 03:53:28;;;;;;;4.15;1.38;;;;;;;;;;5071739;28;20458;-63
2022/07/17 03:55:53;;;;;;;6.15;1.20;;;;;;;;;;5071819;28;20107;-63
2022/07/17 03:58:19;;;;;;;5.40;1.20;;;;;;;;;;5071759;28;20024;-63
2022/07/17 04:00:44;;;;;;;5.00;1.27;;;;;;;;;;5071627;28;20028;-63
2022/07/17 04:03:10;;;;;;;7.50;1.75;;;;;;;;;;5071580;28;20024;-63
2022/07/17 04:05:36;;;;;;;8.50;1.70;;;;;;;;;;5071281;28;20036;-63
2022/07/17 04:08:01;;;;;;;4.53;1.20;;;;;;;;;;5071562;28;20028;-64
2022/07/17 04:10:27;;;;;;;3.75;1.58;;;;;;;;;;5071611;28;20377;-63
2022/07/17 04:12:52;;;;;;;6.15;1.40;;;;;;;;;;5071748;28;20365;-64
2022/07/17 04:15:49;;;;;;;4.78;1.35;;;;;;;;;;5071481;28;20027;-63
2022/07/17 04:18:03;;;;;;;4.90;1.50;;;;;;;;;;5071376;28;20497;-63
2022/07/17 04:20:29;;;;;;;3.33;1.27;;;;;;;;;;5071347;28;20036;-64
2022/07/17 04:22:55;;;;;;;5.55;1.27;;;;;;;;;;5071362;28;20032;-63
2022/07/17 04:25:20;;;;;;;3.80;1.10;;;;;;;;;;5071324;28;20105;-63
2022/07/17 04:27:46;;;;;;;5.63;1.77;;;;;;;;;;5071403;28;20103;-63
2022/07/17 04:30:11;;;;;;;6.00;1.27;;;;;;;;;;5071364;28;20025;-64
2022/07/17 04:32:37;;;;;;;6.75;1.48;;;;;;;;;;5071343;28;20465;-63
2022/07/17 04:35:03;;;;;;;5.80;1.50;;;;;;;;;;5071057;28;20033;-63
2022/07/17 04:37:28;;;;;;;5.20;1.92;;;;;;;;;;5071285;28;20482;-63
2022/07/17 04:39:54;;;;;;;5.38;1.50;;;;;;;;;;5071239;28;20021;-64
2022/07/17 04:42:19;;;;;;;4.68;1.45;;;;;;;;;;5071256;28;20033;-63
2022/07/17 04:44:45;;;;;;;6.03;1.73;;;;;;;;;;5070839;28;20253;-64
2022/07/17 04:47:10;;;;;;;3.92;1.20;;;;;;;;;;5073370;28;20033;-63
2022/07/17 04:49:36;;;;;;;5.45;1.30;;;;;;;;;;5075237;28;20462;-63
2022/07/17 04:52:01;;;;;;;7.88;1.27;;;;;;;;;;5075329;28;20496;-64
2022/07/17 04:54:27;;;;;;;6.80;1.40;;;;;;;;;;5075213;28;20020;-63
2022/07/17 04:56:52;;;;;;;3.60;1.30;;;;;;;;;;5075008;28;20028;-64
2022/07/17 04:59:18;;;;;;;4.60;1.10;;;;;;;;;;5075101;28;20470;-63
2022/07/17 05:01:43;;;;;;;6.13;1.80;;;;;;;;;;5075054;28;20044;-64
2022/07/17 05:04:09;;;;;;;4.72;1.10;;;;;;;;;;5074738;28;20020;-63
2022/07/17 05:06:34;;;;;;;3.38;1.30;;;;;;;;;;5074771;28;20035;-64
2022/07/17 05:09:00;;;;;;;5.22;1.25;;;;;;;;;;5074865;28;20454;-63
2022/07/17 05:11:26;;;;;;;9.38;1.33;;;;;;;;;;5074819;28;20031;-63
2022/07/17 05:13:52;;;;;;;4.00;1.40;;;;;;;;;;5074785;28;20388;-64
2022/07/17 05:16:17;;;;;;;3.03;1.10;;;;;;;;;;5074834;28;20029;-63
2022/07/17 05:18:43;;;;;;;4.22;1.35;;;;;;;;;;5074539;28;20082;-64
2022/07/17 05:21:09;;;;;;;5.57;1.30;;;;;;;;;;5074727;28;20043;-63
2022/07/17 05:23:34;;;;;;;4.95;1.50;;;;;;;;;;5074603;28;20047;-63
2022/07/17 05:26:00;;;;;;;2.95;1.30;;;;;;;;;;5074522;28;20063;-64
2022/07/17 05:28:25;;;;;;;4.43;1.00;;;;;;;;;;5074562;28;20104;-64
2022/07/17 05:30:51;;;;;;;4.38;1.30;;;;;;;;;;5074421;28;20028;-64
2022/07/17 05:33:16;;;;;;;2.72;1.13;;;;;;;;;;5074287;28;20020;-64
2022/07/17 05:35:42;;;;;;;5.80;1.30;;;;;;;;;;5074427;28;20430;-64
2022/07/17 05:38:09;;;;;;;4.57;1.20;;;;;;;;;;5074430;28;20485;-64
2022/07/17 05:40:34;;;;;;;7.65;1.50;;;;;;;;;;5074393;28;20119;-63
2022/07/17 05:43:00;;;;;;;5.28;1.30;;;;;;;;;;5056267;28;20068;-64
2022/07/17 05:45:25;;;;;;;8.30;1.27;;;;;;;;;;5073694;28;20072;-64
2022/07/17 05:47:51;;;;;;;4.68;1.35;;;;;;;;;;5073932;28;20533;-64
2022/07/17 05:50:16;;;;;;;5.68;1.35;;;;;;;;;;5074097;28;20090;-64
2022/07/17 05:52:42;;;;;;;5.00;1.27;;;;;;;;;;5074208;28;20033;-64
2022/07/17 05:55:09;;;;;;;3.00;1.05;;;;;;;;;;5073986;28;20036;-64
2022/07/17 05:57:34;;;;;;;3.85;1.00;;;;;;;;;;5073413;28;20066;-64
2022/07/17 06:00:00;;;;;;;6.07;1.35;;;;;;;;;;5073599;28;20025;-64
2022/07/17 06:02:26;;;;;;;4.13;1.58;;;;;;;;;;5073858;28;20027;-63
2022/07/17 06:04:52;;;;;;;4.28;1.20;;;;;;;;;;5073693;28;20495;-64
2022/07/17 06:07:17;;;;;;;3.78;1.20;;;;;;;;;;5073839;28;20052;-63
2022/07/17 06:09:43;;;;;;;3.55;1.02;;;;;;;;;;5073798;28;20111;-64
2022/07/17 06:12:08;;;;;;;4.22;1.05;;;;;;;;;;5073764;28;20191;-64
2022/07/17 06:14:34;;;;;;;3.75;1.52;;;;;;;;;;5092853;28;20024;-64
2022/07/17 06:16:59;;;;;;;4.80;1.15;;;;;;;;;;5093472;28;20020;-64
2022/07/17 06:19:25;;;;;;;3.63;1.02;;;;;;;;;;5093836;28;20032;-63
2022/07/17 06:21:50;;;;;;;3.95;1.13;;;;;;;;;;5093742;28;20040;-64
2022/07/17 06:24:16;;;;;;;4.18;1.10;;;;;;;;;;5093695;28;20031;-64
2022/07/17 06:26:42;;;;;;;5.55;1.45;;;;;;;;;;5093537;28;20028;-63
2022/07/17 06:29:07;;;;;;;4.10;1.00;;;;;;;;;;5093590;28;20049;-64
2022/07/17 06:31:33;;;;;;;7.68;1.35;;;;;;;;;;5093429;28;20028;-67
2022/07/17 06:33:58;;;;;;;6.63;1.40;;;;;;;;;;5093548;28;20497;-64
2022/07/17 06:36:24;;;;;;;3.80;1.25;;;;;;;;;;5093467;28;20465;-64
2022/07/17 06:38:49;;;;;;;4.97;1.20;;;;;;;;;;5093510;28;20028;-64
2022/07/17 06:41:15;;;;;;;3.17;1.02;;;;;;;;;;5093425;28;20024;-64
2022/07/17 06:43:40;;;;;;;4.30;1.40;;;;;;;;;;5093296;28;20024;-64
2022/07/17 06:46:06;;;;;;;5.80;1.60;;;;;;;;;;5092728;28;20126;-64
2022/07/17 06:48:31;;;;;;;6.65;1.48;;;;;;;;;;5093230;28;20024;-64
2022/07/17 06:50:57;;;;;;;5.45;1.15;;;;;;;;;;5093106;28;20468;-64
2022/07/17 06:53:23;;;;;;;7.75;1.50;;;;;;;;;;5093122;28;20473;-64
2022/07/17 06:55:48;;;;;;;5.95;1.30;;;;;;;;;;5093159;28;20020;-63
2022/07/17 06:58:14;;;;;;;4.30;1.17;;;;;;;;;;5093048;28;20097;-64
2022/07/17 07:00:39;;;;;;;4.50;1.20;;;;;;;;;;5092758;28;20028;-64
2022/07/17 07:03:05;;;;;;;5.18;1.58;;;;;;;;;;5092833;28;20035;-64
2022/07/17 07:05:31;;;;;;;7.10;1.10;;;;;;;;;;5077653;28;20103;-64
2022/07/17 07:07:56;;;;;;;5.15;1.50;;;;;;;;;;5072847;28;20020;-64
2022/07/17 07:10:22;;;;;;;4.50;1.17;;;;;;;;;;5072653;28;20105;-64
2022/07/17 07:12:47;;;;;;;4.95;1.05;;;;;;;;;;5072512;28;20165;-63
2022/07/17 07:15:14;;;;;;;3.00;1.20;;;;;;;;;;5072321;28;20036;-62
2022/07/17 07:17:40;;;;;;;3.67;1.15;;;;;;;;;;5072276;28;20395;-63
2022/07/17 07:20:06;;;;;;;6.50;1.20;;;;;;;;;;5072381;28;20066;-64
2022/07/17 07:22:32;;;;;;;5.70;0.98;;;;;;;;;;5072357;28;20433;-64
2022/07/17 07:24:58;;;;;;;4.53;1.02;;;;;;;;;;5072256;28;20052;-64
2022/07/17 07:27:23;;;;;;;5.40;1.05;;;;;;;;;;5072157;28;20025;-63
2022/07/17 07:29:49;;;;;;;7.38;1.70;;;;;;;;;;5072125;28;20301;-63
2022/07/17 07:32:15;;;;;;;3.22;1.10;;;;;;;;;;5072306;28;20029;-64
2022/07/17 07:34:40;;;;;;;4.45;0.80;;;;;;;;;;5072184;28;20027;-64
2022/07/17 07:37:06;;;;;;;2.38;0.90;;;;;;;;;;5071932;28;20028;-64
2022/07/17 07:39:31;;;;;;;4.45;1.10;;;;;;;;;;5072244;28;20078;-64
2022/07/17 07:41:57;;;;;;;4.35;0.98;;;;;;;;;;5072037;28;20020;-63
2022/07/17 07:44:23;;;;;;;6.18;1.20;;;;;;;;;;5071515;28;20032;-64
2022/07/17 07:46:49;;;;;;;3.20;1.05;;;;;;;;;;5071756;28;20028;-64
2022/07/17 07:49:15;;;;;;;3.78;1.02;;;;;;;;;;5071837;28;20354;-64
2022/07/17 07:51:41;;;;;;;5.80;1.20;;;;;;;;;;5071772;28;20032;-64
2022/07/17 07:54:07;;;;;;;4.97;2.15;;;;;;;;;;5071758;28;20516;-64
2022/07/17 07:56:33;;;;;;;7.22;1.20;;;;;;;;;;5071776;28;20125;-64
2022/07/17 07:58:59;;;;;;;6.75;1.60;;;;;;;;;;5071454;28;20027;-64
2022/07/17 08:01:24;;;;;;;5.22;2.20;;;;;;;;;;5071623;28;20401;-64
2022/07/17 08:03:50;;;;;;;7.53;1.10;;;;;;;;;;5071653;28;20490;-64
2022/07/17 08:06:15;;;;;;;3.97;1.00;;;;;;;;;;5071579;28;20024;-64
2022/07/17 08:08:41;;;;;;;4.38;1.10;;;;;;;;;;5071608;28;20221;-64
2022/07/17 08:11:06;;;;;;;4.13;0.88;;;;;;;;;;5071391;28;20078;-64
2022/07/17 08:13:32;;;;;;;4.43;1.15;;;;;;;;;;5071277;28;20055;-64
2022/07/17 08:15:58;;;;;;;5.03;1.35;;;;;;;;;;5071466;28;20027;-64
2022/07/17 08:18:25;;;;;;;3.75;0.95;;;;;;;;;;5071528;28;20032;-65
2022/07/17 08:20:52;;;;;;;5.15;1.00;;;;;;;;;;5070840;28;20568;-64
2022/07/17 08:23:18;;;;;;;4.43;1.10;;;;;;;;;;5071552;28;20486;-64
2022/07/17 08:25:43;;;;;;;4.95;1.35;;;;;;;;;;5071262;28;20029;-64
2022/07/17 08:28:09;;;;;;;3.22;1.27;;;;;;;;;;5070872;28;20036;-64
2022/07/17 08:30:36;;;;;;;6.20;1.50;;;;;;;;;;5071301;28;20033;-64
2022/07/17 08:33:06;;;;;;;5.03;1.30;;;;;;;;;;5053094;28;20052;-64
2022/07/17 08:35:33;;;;;;;2.65;1.10;;;;;;;;;;5071140;28;20036;-64
2022/07/17 08:38:02;;;;;;;3.70;1.00;;;;;;;;;;5071238;28;20029;-64
2022/07/17 08:40:30;;;;;;;4.68;1.50;;;;;;;;;;5071080;28;20024;-64
2022/07/17 08:42:57;;;;;;;5.15;1.17;;;;;;;;;;5070856;28;20024;-64
2022/07/17 08:45:23;;;;;;;4.45;1.02;;;;;;;;;;5073578;28;20055;-64
2022/07/17 08:47:54;;;;;;;4.18;1.08;;;;;;;;;;5089629;28;20408;-65
2022/07/17 08:50:34;;;;;;;3.22;1.30;;;;;;;;;;5092361;28;20333;-64
2022/07/17 08:53:00;;;;;;;;;;;;;;;;;;5092740;28;20109;-65
2022/07/17 08:55:26;;;;;;;4.63;1.40;;;;;;;;;;5092014;28;19908;-64
2022/07/17 08:57:51;;;;;;;4.80;1.10;;;;;;;;;;5092421;28;20078;-64
2022/07/17 09:00:22;;;;;;;3.67;1.10;;;;;;;;;;5092331;28;20476;-64
2022/07/17 09:03:02;;;;;;;7.25;1.25;;;;;;;;;;5092406;28;20020;-64
2022/07/17 09:05:35;;;;;;;;;;;;;;;;;;5092689;28;20024;-65
2022/07/17 09:08:02;;;;;;;6.05;1.48;;;;;;;;;;5089196;28;19934;-65
2022/07/17 09:10:39;;;;;;;5.38;1.30;;;;;;;;;;5091520;28;20040;-65
2022/07/17 09:13:16;;;;;;;5.50;2.03;;;;;;;;;;5087701;28;20039;-65
2022/07/17 09:15:42;;;;;;;5.53;1.08;;;;;;;;;;5087989;28;20122;-64
2022/07/17 09:18:07;;;;;;;5.32;1.23;;;;;;;;;;5088002;28;20427;-65
2022/07/17 09:20:33;;;;;;;4.35;1.45;;;;;;;;;;5088109;28;20020;-65
2022/07/17 09:23:03;;;;;;;4.18;1.10;;;;;;;;;;5087926;28;20073;-64
2022/07/17 09:25:32;;;;;;;;;;;;;;;;;;5088151;28;20358;-65
2022/07/17 09:28:01;;;;;;;3.38;1.23;;;;;;;;;;5087838;28;19924;-65
2022/07/17 09:30:26;;;;;;;5.60;1.30;;;;;;;;;;5087968;28;20074;-65
2022/07/17 09:32:54;;;;;;;7.32;1.30;;;;;;;;;;5087459;28;20055;-64
2022/07/17 09:35:21;;;;;;;8.90;1.20;;;;;;;;;;5091901;28;20026;-65
2022/07/17 09:37:47;;;;;;;2.20;1.00;;;;;;;;;;5091582;28;20484;-65
2022/07/17 09:42:58;;;;;;;4.30;1.10;;;;;;;;;;5091363;28;20395;-65
2022/07/17 09:45:24;;;;;;;3.55;1.02;;;;;;;;;;5090776;28;20048;-65
2022/07/17 09:47:53;;;;;;;11.95;1.50;;;;;;;;;;5091466;28;20064;-65
2022/07/17 09:50:19;;;;;;;3.40;1.10;;;;;;;;;;5091635;28;20028;-64
2022/07/17 09:52:45;;;;;;;5.10;1.40;;;;;;;;;;5091691;28;20338;-65
2022/07/17 09:55:12;;;;;;;4.80;1.17;;;;;;;;;;5091301;28;20040;-65
2022/07/17 09:57:41;;;;;;;3.65;1.13;;;;;;;;;;5091349;28;20063;-65
2022/07/17 10:00:15;;;;;;;6.40;1.33;;;;;;;;;;5091388;28;20111;-64
2022/07/17 10:02:44;;;;;;;3.08;1.10;;;;;;;;;;5091317;28;20050;-65
2022/07/17 10:05:12;;;;;;;2.53;1.00;;;;;;;;;;5091159;28;20175;-65
2022/07/17 10:07:40;;;;;;;5.60;1.20;;;;;;;;;;5091286;28;20031;-65
2022/07/17 10:10:08;;;;;;;3.60;1.15;;;;;;;;;;5093621;28;20032;-65
2022/07/17 10:12:36;;;;;;;5.57;1.33;;;;;;;;;;5094302;28;20044;-65
2022/07/17 10:15:02;;;;;;;2.08;1.10;;;;;;;;;;5094894;28;20020;-65
2022/07/17 10:17:27;;;;;;;7.05;1.20;;;;;;;;;;5095085;28;20031;-65
2022/07/17 10:19:55;;;;;;;3.20;1.27;;;;;;;;;;5094817;28;20032;-65
2022/07/17 10:22:22;;;;;;;5.10;1.13;;;;;;;;;;5094603;28;20024;-65
2022/07/17 10:24:57;;;;;;;6.00;1.70;;;;;;;;;;5094708;28;20028;-65
2022/07/17 10:27:24;;;;;;;5.10;1.70;;;;;;;;;;5093793;28;20068;-65
2022/07/17 10:30:10;;;;;;;5.97;1.55;;;;;;;;;;5094418;28;20028;-65
2022/07/17 10:32:38;;;;;;;4.07;1.60;;;;;;;;;;5094175;28;20036;-65
2022/07/17 10:35:09;;;;;;;6.03;1.67;;;;;;;;;;5094447;28;20039;-65
2022/07/17 10:37:35;;;;;;;4.70;1.40;;;;;;;;;;5094243;28;20538;-65
2022/07/17 10:40:19;;;;;;;3.78;1.27;;;;;;;;;;5094285;28;20056;-65
2022/07/17 10:42:46;;;;;;;4.10;1.15;;;;;;;;;;5094418;28;20028;-65
2022/07/17 10:45:18;;;;;;;5.78;1.50;;;;;;;;;;5093537;28;20397;-65
2022/07/17 10:47:50;;;;;;;5.00;1.52;;;;;;;;;;5094394;28;20043;-65
2022/07/17 10:50:18;;;;;;;4.15;1.10;;;;;;;;;;5094502;28;20024;-65
2022/07/17 10:52:44;;;;;;;3.95;1.45;;;;;;;;;;5094141;28;20020;-65
2022/07/17 10:55:22;;;;;;;5.05;1.20;;;;;;;;;;5093297;28;20165;-65
2022/07/17 10:57:48;;;;;;;3.80;1.20;;;;;;;;;;5094194;28;20028;-65
2022/07/17 11:00:18;;;;;;;3.40;1.33;;;;;;;;;;5094207;28;20035;-65
2022/07/17 11:02:44;;;;;;;2.15;1.25;;;;;;;;;;5094281;28;20020;-65
2022/07/17 11:05:12;;;;;;;4.28;1.30;;;;;;;;;;5093894;28;20439;-65
2022/07/17 11:07:59;;;;;;;3.05;1.13;;;;;;;;;;5093853;28;20032;-65
2022/07/17 11:10:26;;;;;;;5.00;1.50;;;;;;;;;;5094014;28;20491;-65
2022/07/17 11:13:08;;;;;;;3.67;1.55;;;;;;;;;;5093923;28;20060;-65
2022/07/17 11:15:47;;;;;;;5.97;1.40;;;;;;;;;;5077399;28;20024;-65
2022/07/17 11:18:18;;;;;;;3.83;1.45;;;;;;;;;;5073625;28;20032;-65
2022/07/17 11:20:55;;;;;;;5.70;1.27;;;;;;;;;;5092328;28;20032;-65
2022/07/17 11:23:22;;;;;;;4.90;1.90;;;;;;;;;;5075513;28;20498;-65
2022/07/17 11:26:14;;;;;;;5.90;1.98;;;;;;;;;;5093468;28;20032;-65
2022/07/17 11:28:43;;;;;;;5.60;1.50;;;;;;;;;;5089712;28;20072;-65
2022/07/17 11:31:18;;;;;;;6.22;1.58;;;;;;;;;;5093385;28;20024;-65
2022/07/17 11:33:57;;;;;;;6.35;2.17;;;;;;;;;;5093219;28;20028;-65
2022/07/17 11:36:25;;;;;;;6.13;1.90;;;;;;;;;;5093215;28;20020;-65
2022/07/17 11:38:52;;;;;;;5.55;1.65;;;;;;;;;;5093283;28;20024;-65
2022/07/17 11:41:18;;;;;;;4.82;1.75;;;;;;;;;;5093268;28;20028;-65
2022/07/17 11:43:46;;;;;;;4.38;1.70;;;;;;;;;;5093217;28;20023;-65
2022/07/17 11:46:12;;;;;;;4.07;1.48;;;;;;;;;;5092696;28;20489;-65
2022/07/17 11:48:44;;;;;;;8.10;2.30;;;;;;;;;;5093202;28;20039;-65
2022/07/17 11:51:10;;;;;;;5.75;1.50;;;;;;;;;;5093042;28;20111;-65
2022/07/17 11:53:37;;;;;;;3.78;1.33;;;;;;;;;;5093246;28;20024;-65
2022/07/17 11:56:04;;;;;;;5.78;1.05;;;;;;;;;;5092394;28;20182;-64
2022/07/17 11:58:42;;;;;;;3.97;1.20;;;;;;;;;;5093018;28;20056;-65
2022/07/17 12:01:07;;;;;;;5.25;1.40;;;;;;;;;;5093009;28;20533;-65
2022/07/17 12:03:33;;;;;;;4.07;1.23;;;;;;;;;;5092964;28;20051;-66
2022/07/17 12:05:58;;;;;;;3.53;1.17;;;;;;;;;;5092505;28;20096;-65
2022/07/17 12:08:24;;;;;;;4.10;1.52;;;;;;;;;;5092714;28;20032;-65
2022/07/17 12:11:00;;;;;;;4.00;1.30;;;;;;;;;;5091899;28;20027;-65
2022/07/17 12:13:38;;;;;;;6.10;1.33;;;;;;;;;;5092952;28;20031;-65
2022/07/17 12:16:19;;;;;;;3.65;1.15;;;;;;;;;;5092826;28;20028;-65
2022/07/17 12:19:05;;;;;;;3.58;1.15;;;;;;;;;;5092633;28;20016;-65
2022/07/17 12:21:32;;;;;;;3.53;0.90;;;;;;;;;;5072552;28;20029;-65
2022/07/17 12:24:05;;;;;;;3.72;1.13;;;;;;;;;;5072374;28;20035;-65
2022/07/17 12:26:31;;;;;;;4.07;1.02;;;;;;;;;;5072118;28;20501;-66
2022/07/17 12:28:58;;;;;;;3.85;1.30;;;;;;;;;;5071697;28;20024;-65
2022/07/17 12:31:23;;;;;;;2.35;1.00;;;;;;;;;;5071963;28;20469;-65
2022/07/17 12:33:52;;;;;;;4.38;1.30;;;;;;;;;;5071530;28;20093;-65
2022/07/17 12:36:18;;;;;;;3.25;1.23;;;;;;;;;;5086668;28;20038;-66
2022/07/17 12:38:43;;;;;;;6.53;1.00;;;;;;;;;;5092073;28;20098;-65
2022/07/17 12:41:09;;;;;;;4.03;1.13;;;;;;;;;;5092278;28;20403;-65
2022/07/17 12:43:35;;;;;;;6.32;1.42;;;;;;;;;;5092349;28;20078;-65
2022/07/17 12:46:01;;;;;;;6.30;1.90;;;;;;;;;;5091970;28;20454;-65
2022/07/17 12:48:27;;;;;;;3.22;1.02;;;;;;;;;;5092305;28;20095;-64
2022/07/17 12:50:52;;;;;;;5.43;1.20;;;;;;;;;;5092368;28;20124;-64
2022/07/17 12:53:18;;;;;;;3.75;0.98;;;;;;;;;;5092420;28;20016;-64
2022/07/17 12:55:43;;;;;;;4.07;1.20;;;;;;;;;;5092406;28;20036;-65
2022/07/17 12:58:09;;;;;;;2.75;1.10;;;;;;;;;;5092328;28;20074;-64
2022/07/17 13:00:34;;;;;;;2.53;1.20;;;;;;;;;;5092355;28;20024;-65
2022/07/17 13:03:02;;;;;;;4.45;1.52;;;;;;;;;;5091964;28;20439;-64
2022/07/17 13:05:28;;;;;;;3.05;1.10;;;;;;;;;;5092184;28;20035;-65
2022/07/17 13:07:53;;;;;;;3.65;1.30;;;;;;;;;;5093923;28;20496;-65
2022/07/17 13:10:19;;;;;;;4.10;1.30;;;;;;;;;;5096306;28;20027;-65
2022/07/17 13:12:44;;;;;;;2.40;1.10;;;;;;;;;;5096223;28;20049;-65
2022/07/17 13:15:10;;;;;;;2.65;1.30;;;;;;;;;;5096107;28;20194;-65
2022/07/17 13:17:37;;;;;;;2.80;0.95;;;;;;;;;;5095805;28;20495;-65
2022/07/17 13:20:04;;;;;;;2.65;1.20;;;;;;;;;;5095910;28;20020;-65
2022/07/17 13:22:30;;;;;;;3.30;1.30;;;;;;;;;;5095935;28;20056;-65
2022/07/17 13:24:55;;;;;;;4.93;1.20;;;;;;;;;;5095850;28;20113;-65
2022/07/17 13:27:21;;;;;;;2.58;1.10;;;;;;;;;;5095987;28;20465;-65
2022/07/17 13:29:46;;;;;;;2.63;1.00;;;;;;;;;;5095831;28;20455;-65
2022/07/17 13:32:12;;;;;;;4.47;1.13;;;;;;;;;;5095635;28;20035;-65
2022/07/17 13:34:38;;;;;;;6.53;1.20;;;;;;;;;;5095834;28;20480;-65
2022/07/17 13:37:05;;;;;;;2.72;1.10;;;;;;;;;;5095699;28;20020;-65
2022/07/17 13:39:30;;;;;;;3.03;1.10;;;;;;;;;;5095798;28;20024;-65
2022/07/17 13:41:56;;;;;;;2.50;1.10;;;;;;;;;;5095664;28;20070;-65
2022/07/17 13:44:22;;;;;;;1.85;0.90;;;;;;;;;;5095196;28;20131;-65
2022/07/17 13:46:47;;;;;;;3.28;1.30;;;;;;;;;;5095240;28;20040;-64
2022/07/17 13:49:13;;;;;;;2.67;1.20;;;;;;;;;;5095548;28;20032;-65
2022/07/17 13:51:39;;;;;;;3.95;1.10;;;;;;;;;;5095533;28;20506;-65
2022/07/17 13:54:06;;;;;;;3.63;1.20;;;;;;;;;;5095292;28;20102;-65
2022/07/17 13:56:32;;;;;;;4.22;1.10;;;;;;;;;;5095377;28;20345;-65
2022/07/17 13:58:58;;;;;;;3.92;1.25;;;;;;;;;;5095206;28;20419;-64
2022/07/17 14:01:24;;;;;;;5.60;1.33;;;;;;;;;;5095095;28;20031;-65
2022/07/17 14:03:49;;;;;;;5.10;1.38;;;;;;;;;;5095177;28;20024;-64
2022/07/17 14:06:15;;;;;;;2.47;1.05;;;;;;;;;;5095120;28;20024;-65
2022/07/17 14:08:41;;;;;;;3.20;1.50;;;;;;;;;;5095152;28;20055;-64
2022/07/17 14:11:06;;;;;;;2.53;1.10;;;;;;;;;;5094983;28;20026;-65
2022/07/17 14:13:32;;;;;;;2.25;1.10;;;;;;;;;;5094946;28;20070;-65
2022/07/17 14:15:57;;;;;;;3.22;1.40;;;;;;;;;;5094682;28;20059;-65
2022/07/17 14:18:23;;;;;;;2.63;1.13;;;;;;;;;;5095057;28;20024;-66
2022/07/17 14:20:49;;;;;;;3.25;1.10;;;;;;;;;;5094183;28;20381;-66
2022/07/17 14:23:16;;;;;;;3.17;1.10;;;;;;;;;;5094804;28;20020;-66
2022/07/17 14:25:42;;;;;;;2.63;1.23;;;;;;;;;;5094587;28;20051;-66
2022/07/17 14:28:08;;;;;;;3.47;1.25;;;;;;;;;;5094810;28;20512;-66
2022/07/17 14:30:34;;;;;;;4.70;1.13;;;;;;;;;;5094582;28;20377;-65
2022/07/17 14:33:00;;;;;;;3.72;1.15;;;;;;;;;;5094658;28;20024;-64
2022/07/17 14:35:25;;;;;;;2.38;1.13;;;;;;;;;;5094750;28;20035;-64
2022/07/17 14:37:51;;;;;;;2.40;1.00;;;;;;;;;;5094645;28;20027;-64
2022/07/17 14:40:16;;;;;;;5.55;1.10;;;;;;;;;;5094555;28;20024;-65
2022/07/17 14:42:42;;;;;;;4.28;1.20;;;;;;;;;;5094595;28;20047;-64
2022/07/17 14:45:09;;;;;;;2.45;1.13;;;;;;;;;;5093663;28;20193;-64
2022/07/17 14:47:34;;;;;;;3.10;1.23;;;;;;;;;;5094465;28;20031;-65